Time;durP1;ratioP1;P1;durP2;ratioP2;P2;SDS_P1;SDS_P2;PMS_P1;PMS_P2;Temp;Humidity;BMP_temperature;BMP_pressure;BME280_temperature;BME280_humidity;BME280_pressure;Samples;Min_cycle;Max_cycle;Signal;HPM_P1;HPM_P2
2023/02/22 00:00:43;;;;;;;48.70;19.27;;;;;;;-142.75;100.00;77763.38;4971300;28;20102;-68
2023/02/22 00:03:16;;;;;;;48.90;18.30;;;;;;;-142.75;100.00;77751.56;4971493;28;20492;-68
2023/02/22 00:05:46;;;;;;;47.53;17.67;;;;;;;-142.75;100.00;77767.31;4971363;28;20026;-68
2023/02/22 00:08:16;;;;;;;50.20;18.27;;;;;;;-142.75;100.00;77763.38;4971210;28;20027;-68
2023/02/22 00:10:42;;;;;;;43.33;18.37;;;;;;;-142.75;100.00;77757.47;4964236;28;20031;-68
2023/02/22 00:13:09;;;;;;;55.90;19.23;;;;;;;-142.75;100.00;77759.44;4968528;28;20029;-68
2023/02/22 00:15:35;;;;;;;58.10;20.70;;;;;;;-142.75;100.00;77767.31;4970729;28;20026;-68
2023/02/22 00:18:02;;;;;;;50.70;18.60;;;;;;;-142.75;100.00;77775.19;4990015;23;20039;-67
2023/02/22 00:20:27;;;;;;;46.20;18.43;;;;;;;-142.75;100.00;77763.38;4968621;28;20035;-66
2023/02/22 00:22:54;;;;;;;49.00;18.63;;;;;;;-142.75;100.00;77757.47;4967318;28;20075;-67
2023/02/22 00:25:22;;;;;;;52.03;19.97;;;;;;;-142.75;100.00;77775.19;4970063;28;20027;-66
2023/02/22 00:27:50;;;;;;;53.93;19.53;;;;;;;-142.75;100.00;77753.53;4953364;28;20496;-67
2023/02/22 00:30:22;;;;;;;52.73;18.83;;;;;;;-142.75;100.00;77767.31;4959779;28;20031;-66
2023/02/22 00:32:49;;;;;;;45.50;18.20;;;;;;;-142.75;100.00;77747.63;4958791;28;20030;-66
2023/02/22 00:35:16;;;;;;;48.70;19.47;;;;;;;-142.75;100.00;77751.56;4960674;28;20035;-66
2023/02/22 00:37:42;;;;;;;47.57;19.53;;;;;;;-142.75;100.00;77775.19;4954406;28;20102;-67
2023/02/22 00:40:14;;;;;;;59.53;20.87;;;;;;;-142.75;100.00;77769.28;4962146;28;20127;-66
2023/02/22 00:42:39;;;;;;;50.23;19.20;;;;;;;-142.75;100.00;77767.31;4959832;28;20027;-67
2023/02/22 00:45:06;;;;;;;60.33;20.57;;;;;;;-142.75;100.00;77794.88;4972218;28;20029;-66
2023/02/22 00:47:32;;;;;;;49.70;19.50;;;;;;;-142.75;100.00;77771.25;4965932;28;20044;-67
2023/02/22 00:49:57;;;;;;;49.13;19.50;;;;;;;-142.75;100.00;77765.34;4968546;28;20026;-66
2023/02/22 00:52:24;;;;;;;48.73;19.03;;;;;;;-142.75;100.00;77781.09;4955109;28;20046;-69
2023/02/22 00:54:49;;;;;;;44.00;18.87;;;;;;;-142.75;100.00;77777.16;4961756;28;20066;-67
2023/02/22 00:57:15;;;;;;;49.73;19.27;;;;;;;-142.75;100.00;77818.50;4953623;28;20093;-66
2023/02/22 00:59:40;;;;;;;48.50;19.00;;;;;;;-142.75;100.00;77806.69;4959960;28;20019;-66
2023/02/22 01:02:05;;;;;;;48.70;18.70;;;;;;;-142.75;100.00;77798.81;4954794;28;20445;-66
2023/02/22 01:04:31;;;;;;;;;;;;;;;-142.75;100.00;77771.25;4953879;28;20027;-68
2023/02/22 01:06:57;;;;;;;47.57;17.40;;;;;;;-142.75;100.00;77787.00;4961480;28;19918;-66
2023/02/22 01:09:22;;;;;;;50.53;18.93;;;;;;;-142.75;100.00;77777.16;4971279;28;20026;-66
2023/02/22 01:11:54;;;;;;;57.13;20.27;;;;;;;-142.75;100.00;77785.03;4972567;28;20027;-69
2023/02/22 01:14:20;;;;;;;53.87;19.40;;;;;;;-142.75;100.00;77783.06;4957864;28;20039;-66
2023/02/22 01:16:45;;;;;;;51.60;20.67;;;;;;;-142.75;100.00;77814.56;4954535;28;20088;-66
2023/02/22 01:19:11;;;;;;;52.73;19.43;;;;;;;-142.75;100.00;77787.00;4954227;28;20071;-66
2023/02/22 01:21:36;;;;;;;;;;;;;;;-142.75;100.00;77781.09;4953799;28;20452;-67
2023/02/22 01:24:01;;;;;;;;;;;;;;;-142.75;100.00;77771.25;4955011;28;20371;-65
2023/02/22 01:26:26;;;;;;;;;;;;;;;-142.75;100.00;77773.22;4973970;28;19914;-66
2023/02/22 01:28:52;;;;;;;;;;;;;;;-142.75;100.00;77761.41;4968855;28;19918;-66
2023/02/22 01:31:17;;;;;;;;;;;;;;;-142.75;100.00;77759.44;4969580;28;19923;-67
2023/02/22 01:33:43;;;;;;;;;;;;;;;-142.75;100.00;77781.09;4954819;28;19949;-66
2023/02/22 01:36:10;;;;;;;;;;;;;;;-142.75;100.00;77792.91;4954424;28;19922;-66
2023/02/22 01:38:35;;;;;;;;;;;;;;;-142.75;100.00;77790.94;4964737;28;19914;-66
2023/02/22 01:41:00;;;;;;;;;;;;;;;-142.75;100.00;77771.25;4965583;28;19920;-66
2023/02/22 01:43:28;;;;;;;;;;;;;;;-142.75;100.00;77783.06;4953399;28;20005;-66
2023/02/22 01:45:53;;;;;;;;;;;;;;;-142.75;100.00;77785.03;4953175;28;19965;-66
2023/02/22 01:48:21;;;;;;;;;;;;;;;-142.75;100.00;77773.22;4954232;28;19915;-67
2023/02/22 01:51:10;;;;;;;;;;;;;;;-142.75;100.00;77771.25;4966416;28;20016;-66
2023/02/22 01:53:37;;;;;;;;;;;;;;;-142.75;100.00;77773.22;4950619;28;20004;-66
2023/02/22 01:56:03;;;;;;;;;;;;;;;-142.75;100.00;77775.19;4960510;28;20303;-66
2023/02/22 01:58:31;;;;;;;;;;;;;;;-142.75;100.00;77788.97;4973367;28;19921;-66
2023/02/22 02:00:56;;;;;;;;;;;;;;;-142.75;100.00;77773.22;4972180;28;20000;-66
2023/02/22 02:03:26;;;;;;;;;;;;;;;-142.75;100.00;77771.25;4972234;28;20418;-66
2023/02/22 02:05:52;;;;;;;;;;;;;;;-142.75;100.00;77763.38;4954667;28;19969;-66
2023/02/22 02:08:29;;;;;;;;;;;;;;;-142.75;100.00;77763.38;4953917;28;19920;-66
2023/02/22 02:10:55;;;;;;;;;;;;;;;-142.75;100.00;77771.25;4953906;28;19925;-68
2023/02/22 02:13:20;;;;;;;;;;;;;;;-142.75;100.00;77787.00;4954136;28;20005;-66
2023/02/22 02:15:48;;;;;;;;;;;;;;;-142.75;100.00;77783.06;4953990;28;20046;-66
2023/02/22 02:18:14;;;;;;;;;;;;;;;-142.75;100.00;77783.06;4953675;28;19930;-65
2023/02/22 02:20:57;;;;;;;;;;;;;;;-142.75;100.00;77787.00;4953679;28;20358;-66
2023/02/22 02:23:44;;;;;;;;;;;;;;;-142.75;100.00;77783.06;4968743;28;19942;-66
2023/02/22 02:26:29;;;;;;;;;;;;;;;-142.75;100.00;77775.19;4972526;28;19969;-66
2023/02/22 02:29:12;;;;;;;;;;;;;;;-142.75;100.00;77773.22;4971129;28;19914;-66
2023/02/22 02:31:52;;;;;;;;;;;;;;;-142.75;100.00;77783.06;4971440;28;19962;-66
2023/02/22 02:34:36;;;;;;;;;;;;;;;-142.75;100.00;77777.16;4971629;28;19925;-66
2023/02/22 02:37:07;;;;;;;;;;;;;;;-142.75;100.00;77779.13;4952754;28;19914;-66
2023/02/22 02:39:48;;;;;;;;;;;;;;;-142.75;100.00;77747.63;4969211;28;20299;-66
2023/02/22 02:42:15;;;;;;;;;;;;;;;-142.75;100.00;77741.72;4972873;28;19914;-66
2023/02/22 02:44:50;;;;;;;;;;;;;;;-142.75;100.00;77741.72;4972706;28;19914;-68
2023/02/22 02:47:21;;;;;;;;;;;;;;;-142.75;100.00;77763.38;4972761;28;19914;-66
2023/02/22 02:49:50;;;;;;;;;;;;;;;-142.75;100.00;77775.19;4972263;28;19960;-68
2023/02/22 02:52:17;;;;;;;;;;;;;;;-142.75;100.00;77765.34;4972275;28;19918;-66
2023/02/22 02:54:44;;;;;;;;;;;;;;;-142.75;100.00;77753.53;4953086;28;20028;-67
2023/02/22 02:57:09;;;;;;;;;;;;;;;-142.75;100.00;77767.31;4953436;28;20380;-67
2023/02/22 02:59:36;;;;;;;;;;;;;;;-142.75;100.00;77767.31;4952995;28;19920;-67
2023/02/22 03:02:13;;;;;;;;;;;;;;;-142.75;100.00;77747.63;4953325;28;20002;-66
2023/02/22 03:04:58;;;;;;;;;;;;;;;-142.75;100.00;77739.75;4966978;28;19918;-65
2023/02/22 03:07:37;;;;;;;;;;;;;;;-142.75;100.00;77735.81;4971611;28;19921;-67
2023/02/22 03:10:21;;;;;;;;;;;;;;;-142.75;100.00;77737.78;4967628;28;20368;-67
2023/02/22 03:12:46;;;;;;;;;;;;;;;-142.75;100.00;77735.81;4984930;28;19918;-67
2023/02/22 03:15:17;;;;;;;;;;;;;;;-142.75;100.00;77727.94;4961385;28;19922;-67
2023/02/22 03:17:55;;;;;;;;;;;;;;;-142.75;100.00;77735.81;4952855;28;19997;-67
2023/02/22 03:20:30;;;;;;;;;;;;;;;-142.75;100.00;77727.94;4952939;28;20347;-68
2023/02/22 03:23:23;;;;;;;;;;;;;;;-142.75;100.00;77731.88;4953064;28;19985;-67
2023/02/22 03:25:50;;;;;;;;;;;;;;;-142.75;100.00;77727.94;4976296;28;19922;-67
2023/02/22 03:28:17;;;;;;;;;;;;;;;-142.75;100.00;77731.88;4970689;28;19913;-66
2023/02/22 03:30:52;;;;;;;;;;;;;;;-142.75;100.00;77729.88;4972124;28;19953;-67
2023/02/22 03:33:19;;;;;;;;;;;;;;;-142.75;100.00;77708.22;4970792;28;20473;-67
2023/02/22 03:35:56;;;;;;;;;;;;;;;-142.75;100.00;77698.38;4971910;28;20013;-67
2023/02/22 03:38:23;;;;;;;;;;;;;;;-142.75;100.00;77716.09;4967929;28;19972;-67
2023/02/22 03:40:51;;;;;;;;;;;;;;;-142.75;100.00;77706.25;4985928;28;20280;-67
2023/02/22 03:43:20;;;;;;;;;;;;;;;-142.75;100.00;77696.41;4945843;28;19915;-67
2023/02/22 03:45:47;;;;;;;;;;;;;;;-142.75;100.00;77692.47;4951597;28;20372;-68
2023/02/22 03:48:23;;;;;;;;;;;;;;;-142.75;100.00;77696.41;4951340;28;19921;-67
2023/02/22 03:50:49;;;;;;;;;;;;;;;-142.75;100.00;77700.34;4952261;28;19926;-67
2023/02/22 03:53:17;;;;;;;;;;;;;;;-142.75;100.00;77702.31;4950776;28;19962;-67
2023/02/22 03:55:42;;;;;;;;;;;;;;;-142.75;100.00;77690.50;4950390;28;19973;-67
2023/02/22 03:58:09;;;;;;;;;;;;;;;-142.75;100.00;77688.53;4966242;28;20008;-67
2023/02/22 04:00:35;;;;;;;;;;;;;;;-142.75;100.00;77692.47;4966048;28;19933;-67
2023/02/22 04:03:00;;;;;;;;;;;;;;;-142.75;100.00;77688.53;4950091;28;20323;-67
2023/02/22 04:05:25;;;;;;;;;;;;;;;-142.75;100.00;77682.63;4955077;28;19914;-67
2023/02/22 04:07:52;;;;;;;;;;;;;;;-142.75;100.00;77670.81;4953724;28;20322;-67
2023/02/22 04:10:17;;;;;;;;;;;;;;;-142.75;100.00;77653.09;4969515;28;19922;-67
2023/02/22 04:12:42;;;;;;;;;;;;;;;-142.75;100.00;77668.84;4955062;28;20450;-67
2023/02/22 04:15:10;;;;;;;;;;;;;;;-142.75;100.00;77666.88;4956097;28;19922;-67
2023/02/22 04:17:35;;;;;;;;;;;;;;;-142.75;100.00;77660.97;4954711;28;19918;-67
2023/02/22 04:20:01;;;;;;;;;;;;;;;-142.75;100.00;77674.75;4952722;28;19992;-67
2023/02/22 04:22:26;;;;;;;;;;;;;;;-142.75;100.00;77657.03;4961132;28;19913;-67
2023/02/22 04:24:52;;;;;;;;;;;;;;;-142.75;100.00;77651.13;4975176;28;20013;-67
2023/02/22 04:27:17;;;;;;;;;;;;;;;-142.75;100.00;77657.03;4962556;28;20289;-65
2023/02/22 04:29:43;;;;;;;;;;;;;;;-142.75;100.00;77670.81;4955470;28;19941;-67
2023/02/22 04:32:08;;;;;;;;;;;;;;;-142.75;100.00;77666.88;4954711;28;19918;-67
2023/02/22 04:34:33;;;;;;;;;;;;;;;-142.75;100.00;77645.22;4955906;28;20283;-67
2023/02/22 04:36:59;;;;;;;;;;;;;;;-142.75;100.00;77645.22;4955711;28;19914;-67
2023/02/22 04:39:24;;;;;;;;;;;;;;;-142.75;100.00;77641.28;4964681;28;19921;-67
2023/02/22 04:41:50;;;;;;;;;;;;;;;-142.75;100.00;77645.22;4974951;28;19914;-67
2023/02/22 04:44:15;;;;;;;;;;;;;;;-142.75;100.00;77653.09;4973738;28;19921;-67
2023/02/22 04:46:40;;;;;;;;;;;;;;;-142.75;100.00;77643.25;4962633;28;20288;-67
2023/02/22 04:49:06;;;;;;;;;;;;;;;-142.75;100.00;77629.47;4970031;28;20439;-67
2023/02/22 04:51:31;;;;;;;;;;;;;;;-142.75;100.00;77629.47;4955628;28;20012;-67
2023/02/22 04:53:56;;;;;;;;;;;;;;;-142.75;100.00;77629.47;4955396;28;20004;-67
2023/02/22 04:56:22;;;;;;;;;;;;;;;-142.75;100.00;77617.66;4955515;28;20407;-67
2023/02/22 04:58:47;;;;;;;;;;;;;;;-142.75;100.00;77621.59;4972808;28;20020;-67
2023/02/22 05:01:13;;;;;;;;;;;;;;;-142.75;100.00;77627.50;4974602;28;20000;-67
2023/02/22 05:03:39;;;;;;;;;;;;;;;-142.75;100.00;77621.59;4973215;28;20340;-67
2023/02/22 05:06:04;;;;;;;;;;;;;;;-142.75;100.00;77633.41;4965777;28;19914;-67
2023/02/22 05:08:29;;;;;;;;;;;;;;;-142.75;100.00;77645.22;4954882;28;19918;-67
2023/02/22 05:10:54;;;;;;;;;;;;;;;-142.75;100.00;77655.06;4955112;28;19918;-66
2023/02/22 05:13:20;;;;;;;;;;;;;;;-142.75;100.00;77647.19;4964158;28;19914;-67
2023/02/22 05:15:45;;;;;;;;;;;;;;;-142.75;100.00;77641.28;4956398;28;20264;-67
2023/02/22 05:18:10;;;;;;;;;;;;;;;-142.75;100.00;77641.28;4966531;28;19920;-67
2023/02/22 05:20:35;;;;;;;;;;;;;;;-142.75;100.00;77625.53;4974150;28;19914;-66
2023/02/22 05:23:01;;;;;;;;;;;;;;;-142.75;100.00;77613.72;4974247;28;20016;-66
2023/02/22 05:25:27;;;;;;;;;;;;;;;-142.75;100.00;77615.69;4974146;28;19948;-67
2023/02/22 05:27:53;;;;;;;;;;;;;;;-142.75;100.00;77621.59;4973984;28;19914;-66
2023/02/22 05:30:22;;;;;;;;;;;;;;;-142.75;100.00;77631.44;4972539;28;19922;-67
2023/02/22 05:32:47;;;;;;;;;;;;;;;-142.75;100.00;77615.69;4974202;28;19925;-67
2023/02/22 05:35:12;;;;;;;;;;;;;;;-142.75;100.00;77613.72;4974056;28;19914;-67
2023/02/22 05:37:38;;;;;;;;;;;;;;;-142.75;100.00;77619.63;4973894;28;19917;-66
2023/02/22 05:40:03;;;;;;;;;;;;;;;-142.75;100.00;77609.78;4972354;28;19976;-67
2023/02/22 05:42:28;;;;;;;;;;;;;;;-142.75;100.00;77596.00;4973928;28;19914;-67
2023/02/22 05:44:54;;;;;;;;;;;;;;;-142.75;100.00;77590.09;4973741;28;19941;-66
2023/02/22 05:47:19;;;;;;;;;;;;;;;-142.75;100.00;77582.22;4973806;28;19957;-67
2023/02/22 05:49:44;;;;;;;;;;;;;;;-142.75;100.00;77572.38;4971956;28;19921;-67
2023/02/22 05:52:09;;;;;;;;;;;;;;;-142.75;100.00;77566.47;4973630;28;19925;-67
2023/02/22 05:54:34;;;;;;;;;;;;;;;-142.75;100.00;77558.59;4960882;28;19914;-67
2023/02/22 05:57:00;;;;;;;;;;;;;;;-142.75;100.00;77546.78;4969919;28;19926;-67
2023/02/22 05:59:26;;;;;;;;;;;;;;;-142.75;100.00;77546.78;4973288;28;19921;-66
2023/02/22 06:01:51;;;;;;;;;;;;;;;-142.75;100.00;77544.81;4973650;28;19917;-67
2023/02/22 06:04:16;;;;;;;;;;;;;;;-142.75;100.00;77540.88;4954261;28;20367;-67
2023/02/22 06:06:42;;;;;;;;;;;;;;;-142.75;100.00;77546.78;4954109;28;19937;-67
2023/02/22 06:09:07;;;;;;;;;;;;;;;-142.75;100.00;77534.97;4953659;28;19918;-67
2023/02/22 06:11:32;;;;;;;;;;;;;;;-142.75;100.00;77544.81;4962998;28;19925;-67
2023/02/22 06:13:57;;;;;;;;;;;;;;;-142.75;100.00;77542.84;4973161;28;19917;-67
2023/02/22 06:16:22;;;;;;;;;;;;;;;-142.75;100.00;77550.72;4973271;28;19922;-67
2023/02/22 06:18:48;;;;;;;;;;;;;;;-142.75;100.00;77542.84;4984800;23;19926;-68
2023/02/22 06:21:13;;;;;;;;;;;;;;;-142.75;100.00;77538.91;4942798;29;19918;-67
2023/02/22 06:23:38;;;;;;;;;;;;;;;-142.75;100.00;77527.09;4951786;29;19914;-68
2023/02/22 06:26:04;;;;;;;;;;;;;;;-142.75;100.00;77521.19;4953072;28;20001;-68
2023/02/22 06:28:29;;;;;;;;;;;;;;;-142.75;100.00;77505.44;4953527;28;19918;-68
2023/02/22 06:30:54;;;;;;;;;;;;;;;-142.75;100.00;77523.16;4953061;29;19926;-68
2023/02/22 06:33:19;;;;;;;;;;;;;;;-142.75;100.00;77540.88;4953457;29;19921;-67
2023/02/22 06:35:45;;;;;;;;;;;;;;;-142.75;100.00;77542.84;4952570;29;19920;-68
2023/02/22 06:38:11;;;;;;;;;;;;;;;-142.75;100.00;77546.78;4947949;28;20295;-68
2023/02/22 06:40:36;;;;;;;;;;;;;;;-142.75;100.00;77550.72;4953475;29;19968;-68
2023/02/22 06:43:01;;;;;;;;;;;;;;;-142.75;100.00;77536.94;4953303;29;19914;-68
2023/02/22 06:45:26;;;;;;;;;;;;;;;-142.75;100.00;77534.97;4953408;29;20399;-68
2023/02/22 06:47:52;;;;;;;;;;;;;;;-142.75;100.00;77540.88;4953519;28;19922;-68
2023/02/22 06:50:17;;;;;;;;;;;;;;;-142.75;100.00;77529.06;4953095;28;19926;-67
2023/02/22 06:52:42;;;;;;;;;;;;;;;-142.75;100.00;77521.19;4953429;29;20009;-68
2023/02/22 06:55:07;;;;;;;;;;;;;;;-142.75;100.00;77521.19;4953305;29;19914;-67
2023/02/22 06:57:33;;;;;;;;;;;;;;;-142.75;100.00;77527.09;4953383;29;20368;-68
2023/02/22 06:59:58;;;;;;;;;;;;;;;-142.75;100.00;77536.94;4952843;28;20467;-68
2023/02/22 07:02:23;;;;;;;;;;;;;;;-142.75;100.00;77531.03;4943295;29;19914;-68
2023/02/22 07:04:48;;;;;;;;;;;;;;;-142.75;100.00;77538.91;4934065;29;19918;-68
2023/02/22 07:07:13;;;;;;;;;;;;;;;-142.75;100.00;77525.13;4933984;29;19915;-68
2023/02/22 07:09:38;;;;;;;;;;;;;;;-142.75;100.00;77529.06;4933663;29;19923;-69
2023/02/22 07:12:04;;;;;;;;;;;;;;;-142.75;100.00;77531.03;4948685;28;19915;-69
2023/02/22 07:14:29;;;;;;;;;;;;;;;-142.75;100.00;77538.91;4930327;29;19993;-68
2023/02/22 07:16:54;;;;;;;;;;;;;;;-142.75;100.00;77544.81;4930999;29;19918;-68
2023/02/22 07:19:19;;;;;;;;;;;;;;;-142.75;100.00;77562.53;4931778;29;19960;-68
2023/02/22 07:21:46;;;;;;;;;;;;;;;-142.75;100.00;77538.91;4932356;29;19921;-68
2023/02/22 07:24:12;;;;;;;;;;;;;;;-142.75;100.00;77546.78;4932548;29;19915;-68
2023/02/22 07:26:39;;;;;;;;;;;;;;;-142.75;100.00;77542.84;4932594;29;19914;-68
2023/02/22 07:29:04;;;;;;;;;;;;;;;-142.75;100.00;77550.72;4929089;29;19941;-67
2023/02/22 07:31:33;;;;;;;;;;;;;;;-142.75;100.00;77564.50;4933671;29;20391;-68
2023/02/22 07:33:58;;;;;;;;;;;;;;;-142.75;100.00;77538.91;4933480;29;19915;-68
2023/02/22 07:36:24;;;;;;;;;;;;;;;-142.75;100.00;77538.91;4933630;29;19922;-68
2023/02/22 07:38:49;;;;;;;;;;;;;;;-142.75;100.00;77531.03;4937042;29;19918;-68
2023/02/22 07:41:14;;;;;;;;;;;;;;;-142.75;100.00;77529.06;4937146;29;19927;-68
2023/02/22 07:43:39;;;;;;;;;;;;;;;-142.75;100.00;77538.91;4937179;29;19982;-68
2023/02/22 07:46:04;;;;;;;;;;;;;;;-142.75;100.00;77529.06;4937408;29;19914;-68
2023/02/22 07:48:30;;;;;;;;;;;;;;;-142.75;100.00;77529.06;4936751;29;20406;-68
2023/02/22 07:50:56;;;;;;;;;;;;;;;-142.75;100.00;77511.34;4935795;29;19918;-68
2023/02/22 07:53:28;;;;;;;;;;;;;;;-142.75;100.00;77517.25;4935490;29;20001;-68
2023/02/22 07:55:54;;;;;;;;;;;;;;;-142.75;100.00;77511.34;4937352;29;20460;-68
2023/02/22 07:58:21;;;;;;;;;;;;;;;-142.75;100.00;77515.28;4937285;29;19925;-68
2023/02/22 08:00:47;;;;;;;;;;;;;;;-142.75;100.00;77499.53;4937212;29;20018;-68
2023/02/22 08:03:12;;;;;;;;;;;;;;;-142.75;100.00;77509.38;4937351;29;19932;-67
2023/02/22 08:05:39;;;;;;;;;;;;;;;-142.75;100.00;77495.59;4937276;29;19915;-68
2023/02/22 08:08:04;;;;;;;;;;;;;;;-142.75;100.00;77499.53;4937253;29;19921;-68
2023/02/22 08:10:30;;;;;;;;;;;;;;;-142.75;100.00;77513.31;4936891;29;19922;-68
2023/02/22 08:12:55;;;;;;;;;;;;;;;-142.75;100.00;77509.38;4937354;29;19915;-68
2023/02/22 08:15:23;;;;;;;;;;;;;;;-142.75;100.00;77503.47;4937092;29;19915;-68
2023/02/22 08:17:48;;;;;;;;;;;;;;;-142.75;100.00;77493.63;4937047;29;19926;-68
2023/02/22 08:20:14;;;;;;;;;;;;;;;-142.75;100.00;77485.75;4935328;29;19914;-68
2023/02/22 08:22:41;;;;;;;;;;;;;;;-142.75;100.00;77479.84;4936967;29;19919;-68
2023/02/22 08:25:06;;;;;;;;;;;;;;;-142.75;100.00;77466.03;4938520;29;19915;-67
2023/02/22 08:27:32;;;;;;;;;;;;;;;-142.75;100.00;77470.00;4956674;29;19937;-67
2023/02/22 08:29:58;;;;;;;;;;;;;;;-142.75;100.00;77466.03;4957727;28;19962;-66
2023/02/22 08:32:23;;;;;;;;;;;;;;;-142.75;100.00;77475.91;4958115;28;19914;-67
2023/02/22 08:34:48;;;;;;;;;;;;;;;-142.75;100.00;77462.13;4950183;28;19932;-68
2023/02/22 08:37:14;;;;;;;;;;;;;;;-142.75;100.00;77450.28;4944598;29;19918;-68
2023/02/22 08:39:40;;;;;;;;;;;;;;;-142.75;100.00;77436.50;4936005;29;19925;-67
2023/02/22 08:42:05;;;;;;;;;;;;;;;-142.75;100.00;77432.56;4933469;29;19922;-68
2023/02/22 08:44:30;;;;;;;;;;;;;;;-142.75;100.00;77448.34;4937580;29;19922;-68
2023/02/22 08:46:55;;;;;;;;;;;;;;;-142.75;100.00;77448.34;4936474;29;19922;-68
2023/02/22 08:49:21;;;;;;;;;;;;;;;-142.75;100.00;77444.38;4935742;29;19919;-68
2023/02/22 08:51:46;;;;;;;;;;;;;;;-142.75;100.00;77444.38;4936782;29;19922;-68
2023/02/22 08:54:11;;;;;;;;;;;;;;;-142.75;100.00;77444.38;4937794;29;19969;-68
2023/02/22 08:56:36;;;;;;;;;;;;;;;-142.75;100.00;77424.69;4937551;29;19915;-68
2023/02/22 08:59:02;;;;;;;;;;;;;;;-142.75;100.00;77438.47;4936280;29;19921;-68
2023/02/22 09:01:28;;;;;;;;;;;;;;;-142.75;100.00;77420.75;4938320;29;19915;-68
2023/02/22 09:03:54;;;;;;;;;;;;;;;-142.75;100.00;77408.94;4937819;29;19914;-68
2023/02/22 09:06:20;;;;;;;;;;;;;;;-142.75;100.00;77410.91;4935887;29;19918;-68
2023/02/22 09:08:45;;;;;;;;;;;;;;;-142.75;100.00;77422.72;4935655;29;19924;-68
2023/02/22 09:11:10;;;;;;;;;;;;;;;-142.75;100.00;77420.75;4936114;29;20002;-68
2023/02/22 09:13:36;;;;;;;;;;;;;;;-142.75;100.00;77408.94;4936820;29;19915;-68
2023/02/22 09:16:01;;;;;;;;;;;;;;;-142.75;100.00;77406.97;4936024;29;19918;-68
2023/02/22 09:18:27;;;;;;;;;;;;;;;-142.75;100.00;77414.84;4932885;29;19965;-68
2023/02/22 09:20:53;;;;;;;;;;;;;;;-142.75;100.00;77410.91;4935499;29;19957;-67
2023/02/22 09:23:19;;;;;;;;;;;;;;;-142.75;100.00;77393.19;4942608;29;20351;-68
2023/02/22 09:25:45;;;;;;;;;;;;;;;-142.75;100.00;77397.13;4937257;28;19970;-68
2023/02/22 09:28:10;;;;;;;;;;;;;;;-142.75;100.00;77389.25;4936393;29;19918;-66
2023/02/22 09:30:35;;;;;;;;;;;;;;;-142.75;100.00;77373.50;4936356;29;19957;-67
2023/02/22 09:33:08;;;;;;;;;;;;;;;-142.75;100.00;77365.63;4938101;29;20583;-67
2023/02/22 09:35:34;;;;;;;;;;;;;;;-142.75;100.00;77367.59;4937000;29;19915;-67
2023/02/22 09:38:01;;;;;;;;;;;;;;;-142.75;100.00;77365.63;4951258;28;19978;-67
2023/02/22 09:40:28;;;;;;;;;;;;;;;-142.75;100.00;77342.00;4937573;29;19950;-67
2023/02/22 09:43:15;;;;;;;;;;;;;;;-142.75;100.00;77353.81;4940144;29;19941;-67
2023/02/22 09:45:59;;;;;;;;;;;;;;;-142.75;100.00;77355.78;4925213;29;19950;-67
2023/02/22 09:48:24;;;;;;;;;;;;;;;-142.75;100.00;77357.75;4933426;29;19922;-67
2023/02/22 09:50:52;;;;;;;;;;;;;;;-142.75;100.00;77357.75;4934814;29;20617;-67
2023/02/22 09:53:29;;;;;;;;;;;;;;;-142.75;100.00;77355.78;4935150;29;20072;-68
2023/02/22 09:55:58;;;;;;;;;;;;;;;-142.75;100.00;77349.88;4933336;29;19921;-67
2023/02/22 09:58:27;;;;;;;;;;;;;;;-142.75;100.00;77334.13;4933125;29;19962;-68
2023/02/22 10:00:58;;;;;;;;;;;;;;;-142.75;100.00;77332.16;4933695;29;19950;-68
2023/02/22 10:03:43;;;;;;;;;;;;;;;-142.75;100.00;77326.25;4935169;29;20001;-68
2023/02/22 10:06:10;;;;;;;;;;;;;;;-142.75;100.00;77332.16;4924182;29;19969;-68
2023/02/22 10:08:37;;;;;;;;;;;;;;;-142.75;100.00;77338.06;4934893;29;19926;-68
2023/02/22 10:11:18;;;;;;;;;;;;;;;-142.75;100.00;77355.78;4934937;29;19914;-68
2023/02/22 10:13:54;;;;;;;;;;;;;;;-142.75;100.00;77342.00;4934758;29;20405;-68
2023/02/22 10:16:19;;;;;;;;;;;;;;;-142.75;100.00;77330.19;4935169;29;20005;-68
2023/02/22 10:18:53;;;;;;;;;;;;;;;-142.75;100.00;77322.31;4934497;29;20002;-67
2023/02/22 10:21:22;;;;;;;;;;;;;;;-142.75;100.00;77310.50;4934993;29;19922;-68
2023/02/22 10:23:53;;;;;;;;;;;;;;;-142.75;100.00;77300.66;4934845;29;20315;-68
2023/02/22 10:26:24;;;;;;;;;;;;;;;-142.75;100.00;77282.94;4934755;29;19969;-68
2023/02/22 10:29:00;;;;;;;;;;;;;;;-142.75;100.00;77284.91;4934395;29;19929;-68
2023/02/22 10:31:35;;;;;;;;;;;;;;;-142.75;100.00;77271.13;4934754;29;20285;-68
2023/02/22 10:34:06;;;;;;;;;;;;;;;-142.75;100.00;77279.00;4934588;29;20364;-68
2023/02/22 10:36:33;;;;;;;;;;;;;;;-142.75;100.00;77292.78;4941149;29;19960;-68
2023/02/22 10:39:12;;;;;;;;;;;;;;;-142.75;100.00;77296.72;4953409;28;19920;-68
2023/02/22 10:41:39;;;;;;;;;;;;;;;-142.75;100.00;77282.94;4953570;28;19914;-68
2023/02/22 10:44:05;;;;;;;;;;;;;;;-142.75;100.00;77284.91;4953323;29;20024;-69
2023/02/22 10:46:31;;;;;;;;;;;;;;;-142.75;100.00;77263.25;4951841;29;20009;-68
2023/02/22 10:49:01;;;;;;;;;;;;;;;-142.75;100.00;77259.31;4954213;28;19997;-67
2023/02/22 10:51:27;;;;;;;;;;;;;;;-142.75;100.00;77243.56;4954258;28;19915;-68
2023/02/22 10:53:57;;;;;;;;;;;;;;;-142.75;100.00;77243.56;4953486;29;19914;-68
2023/02/22 10:56:23;;;;;;;;;;;;;;;-142.75;100.00;77257.34;4952056;29;19914;-68
2023/02/22 10:58:52;;;;;;;;;;;;;;;-142.75;100.00;77251.44;4953091;28;19918;-67
2023/02/22 11:01:18;;;;;;;;;;;;;;;-142.75;100.00;77227.81;4953121;29;20433;-68
2023/02/22 11:03:44;;;;;;;;;;;;;;;-142.75;100.00;77217.97;4953256;28;19919;-68
2023/02/22 11:06:27;;;;;;;;;;;;;;;-142.75;100.00;77231.75;4953286;28;19914;-68
2023/02/22 11:09:10;;;;;;;;;;;;;;;-142.75;100.00;77219.94;4952812;28;20013;-68
2023/02/22 11:11:35;;;;;;;;;;;;;;;-142.75;100.00;77217.97;4953413;28;19997;-69
2023/02/22 11:14:05;;;;;;;;;;;;;;;-142.75;100.00;77216.00;4951774;29;20005;-67
2023/02/22 11:16:48;;;;;;;;;;;;;;;-142.75;100.00;77212.06;4953204;29;19914;-68
2023/02/22 11:19:19;;;;;;;;;;;;;;;-142.75;100.00;77214.03;4952565;28;19953;-68
2023/02/22 11:21:45;;;;;;;;;;;;;;;-142.75;100.00;77223.88;4953017;29;19918;-68
2023/02/22 11:24:12;;;;;;;;;;;;;;;-142.75;100.00;77219.94;4953048;29;20005;-67
2023/02/22 11:26:47;;;;;;;;;;;;;;;-142.75;100.00;77204.19;4952638;29;19914;-68
2023/02/22 11:29:49;;;;;;;;;;;;;;;-142.75;100.00;77204.19;4952679;28;20387;-68
2023/02/22 11:32:20;;;;;;;;;;;;;;;-142.75;100.00;77196.31;4937520;29;19918;-68
2023/02/22 11:34:45;;;;;;;;;;;;;;;-142.75;100.00;77196.31;4933869;29;19970;-68
2023/02/22 11:37:14;;;;;;;;;;;;;;;-142.75;100.00;77194.34;4935688;29;19973;-68
2023/02/22 11:39:42;;;;;;;;;;;;;;;-142.75;100.00;77192.38;4935234;29;19929;-69
2023/02/22 11:42:24;;;;;;;;;;;;;;;-142.75;100.00;77200.25;4935382;29;19914;-69
2023/02/22 11:45:08;;;;;;;;;;;;;;;-142.75;100.00;77196.31;4933953;29;19925;-68
2023/02/22 11:47:33;;;;;;;;;;;;;;;-142.75;100.00;77184.50;4932060;29;19927;-68
2023/02/22 11:50:01;;;;;;;;;;;;;;;-142.75;100.00;77192.38;4932450;29;20434;-68
2023/02/22 11:52:34;;;;;;;;;;;;;;;-142.75;100.00;77174.66;4932362;29;19921;-67
2023/02/22 11:54:59;;;;;;;;;;;;;;;-142.75;100.00;77190.41;4933462;29;19915;-67
2023/02/22 11:57:30;;;;;;;;;;;;;;;-142.75;100.00;77170.72;4930776;29;19921;-67
2023/02/22 11:59:55;;;;;;;;;;;;;;;-142.75;100.00;77160.88;4935856;29;19950;-67
2023/02/22 12:02:20;;;;;;;;;;;;;;;-142.75;100.00;77145.13;4935076;29;20715;-67
2023/02/22 12:05:09;;;;;;;;;;;;;;;-142.75;100.00;77135.28;4937120;29;19977;-67
2023/02/22 12:07:47;;;;;;;;;;;;;;;-142.75;100.00;77125.44;4929554;29;19988;-67
2023/02/22 12:10:18;;;;;;;;;;;;;;;-142.75;100.00;77105.75;4933863;29;19922;-68
2023/02/22 12:12:52;;;;;;;;;;;;;;;-142.75;100.00;77113.63;4934175;29;20273;-67